Time;durP1;ratioP1;P1;durP2;ratioP2;P2;SDS_P1;SDS_P2;PMS_P1;PMS_P2;Temp;Humidity;BMP_temperature;BMP_pressure;BME280_temperature;BME280_humidity;BME280_pressure;Samples;Min_cycle;Max_cycle;Signal;HPM_P1;HPM_P2
2021/12/06 00:01:12;;;;;;;32.00;13.30;;;;;;;2.71;100.00;100272.94;5245951;28;20020;-77
2021/12/06 00:06:17;;;;;;;39.17;14.98;;;;;;;2.73;100.00;100284.09;5176572;28;21062;-79
2021/12/06 00:08:48;;;;;;;38.58;15.45;;;;;;;2.82;100.00;100287.44;5176669;28;20030;-79
2021/12/06 00:11:18;;;;;;;40.13;14.57;;;;;;;2.96;100.00;100287.31;5170906;28;20483;-78
2021/12/06 00:13:49;;;;;;;42.75;16.42;;;;;;;2.99;100.00;100295.06;5169428;28;20053;-78
2021/12/06 00:16:22;;;;;;;40.78;16.42;;;;;;;3.01;100.00;100290.72;5170654;28;20050;-79
2021/12/06 00:18:53;;;;;;;41.10;16.00;;;;;;;3.00;100.00;100296.75;5169504;28;20036;-77
2021/12/06 00:21:24;;;;;;;43.85;15.82;;;;;;;2.87;100.00;100306.31;5170529;28;20030;-77
2021/12/06 00:23:55;;;;;;;44.45;16.90;;;;;;;2.91;100.00;100312.31;5174111;28;20052;-78
2021/12/06 00:26:25;;;;;;;45.03;17.13;;;;;;;2.64;100.00;100313.41;5180109;28;20333;-80
2021/12/06 00:28:58;;;;;;;39.78;16.08;;;;;;;2.81;100.00;100311.53;5179665;28;20040;-77
2021/12/06 00:31:32;;;;;;;41.13;15.32;;;;;;;2.93;100.00;100316.59;5179863;28;21340;-79
2021/12/06 00:34:07;;;;;;;49.28;17.30;;;;;;;2.66;100.00;100313.41;5179864;28;20022;-79
2021/12/06 00:36:40;;;;;;;43.65;15.73;;;;;;;2.55;100.00;100317.78;5179213;28;20042;-79
2021/12/06 00:39:12;;;;;;;43.58;16.77;;;;;;;2.65;100.00;100320.28;5178682;28;20092;-79
2021/12/06 00:41:42;;;;;;;47.85;17.17;;;;;;;2.47;100.00;100329.91;5176997;28;20034;-78
2021/12/06 00:44:12;;;;;;;56.85;19.20;;;;;;;2.31;100.00;100334.28;5179972;28;20025;-77
2021/12/06 00:46:43;;;;;;;56.97;19.55;;;;;;;2.27;100.00;100326.56;5179502;28;20040;-78
2021/12/06 00:49:13;;;;;;;60.83;20.58;;;;;;;2.31;100.00;100336.84;5179981;28;20022;-79
2021/12/06 00:51:44;;;;;;;62.05;20.02;;;;;;;2.55;100.00;100336.72;5180030;28;20033;-79
2021/12/06 00:54:15;;;;;;;64.57;20.80;;;;;;;2.67;100.00;100333.19;5179248;28;20030;-78
2021/12/06 00:56:45;;;;;;;56.38;19.70;;;;;;;2.63;100.00;100336.63;5179403;28;20036;-78
2021/12/06 00:59:16;;;;;;;53.90;20.40;;;;;;;2.38;100.00;100340.25;5182653;28;20112;-78
2021/12/06 01:01:46;;;;;;;63.20;21.42;;;;;;;2.26;100.00;100351.50;5182961;28;20073;-78
2021/12/06 01:04:17;;;;;;;64.32;20.80;;;;;;;2.39;100.00;100354.84;5186896;28;20036;-77
2021/12/06 01:06:47;;;;;;;60.17;21.65;;;;;;;2.43;100.00;100354.84;5203947;28;20047;-79
2021/12/06 01:09:17;;;;;;;58.67;21.45;;;;;;;2.26;100.00;100363.53;5204866;28;20033;-80
2021/12/06 01:11:48;;;;;;;52.67;19.38;;;;;;;2.42;100.00;100360.84;5204322;28;20026;-79
2021/12/06 01:14:19;;;;;;;57.25;20.65;;;;;;;2.53;100.00;100368.53;5204373;28;20523;-79
2021/12/06 01:16:50;;;;;;;59.53;20.80;;;;;;;2.55;100.00;100359.91;5203053;28;20030;-79
2021/12/06 01:19:20;;;;;;;56.00;20.73;;;;;;;2.62;100.00;100360.69;5204314;28;20084;-79
2021/12/06 01:22:04;;;;;;;57.22;20.35;;;;;;;2.60;100.00;100368.47;5204090;28;20419;-77
2021/12/06 01:24:41;;;;;;;52.42;18.88;;;;;;;2.68;100.00;100371.00;5204006;28;20048;-79
2021/12/06 01:27:32;;;;;;;51.80;18.52;;;;;;;2.62;100.00;100373.59;5190481;28;20049;-79
2021/12/06 01:30:32;;;;;;;48.47;17.92;;;;;;;2.70;100.00;100370.09;5203723;28;20030;-77
2021/12/06 01:41:11;;;;;;;60.30;21.45;;;;;;;2.41;100.00;100396.94;5195350;28;20112;-79
2021/12/06 01:44:17;;;;;;;58.13;20.30;;;;;;;2.59;100.00;100389.09;5200802;28;20112;-78
2021/12/06 01:46:54;;;;;;;55.03;20.65;;;;;;;2.44;100.00;100387.50;5199966;28;20024;-77
2021/12/06 01:49:28;;;;;;;57.17;19.90;;;;;;;2.45;100.00;100399.50;5203613;28;20083;-79
2021/12/06 01:52:03;;;;;;;57.85;20.63;;;;;;;2.43;100.00;100400.38;5203466;28;20029;-77
2021/12/06 01:54:33;;;;;;;54.58;20.92;;;;;;;2.50;100.00;100402.91;5203216;28;20040;-79
2021/12/06 01:57:04;;;;;;;54.85;21.15;;;;;;;2.59;100.00;100394.25;5203151;28;20494;-79
2021/12/06 01:59:34;;;;;;;57.25;20.45;;;;;;;2.67;100.00;100395.06;5203251;28;20041;-78
2021/12/06 02:02:06;;;;;;;58.80;21.08;;;;;;;2.72;100.00;100393.31;5203271;28;20033;-78
2021/12/06 02:04:38;;;;;;;56.03;21.48;;;;;;;2.66;100.00;100386.47;5203104;28;20038;-78
2021/12/06 02:07:14;;;;;;;54.90;20.05;;;;;;;2.51;100.00;100389.16;5198983;28;20104;-77
2021/12/06 02:09:47;;;;;;;57.08;20.98;;;;;;;2.68;100.00;100391.63;5202757;28;20029;-78
2021/12/06 02:12:19;;;;;;;53.50;20.48;;;;;;;2.80;100.00;100394.09;5202927;28;20059;-79
2021/12/06 02:15:00;;;;;;;58.33;20.10;;;;;;;2.53;100.00;100402.03;5203424;28;20037;-79
2021/12/06 02:17:37;;;;;;;56.25;20.33;;;;;;;2.33;100.00;100414.19;5201111;28;20021;-78
2021/12/06 02:20:14;;;;;;;52.80;20.00;;;;;;;2.30;100.00;100412.50;5193398;28;20714;-79
2021/12/06 02:22:46;;;;;;;58.47;21.73;;;;;;;2.37;100.00;100413.31;5199755;28;20025;-79
2021/12/06 02:25:19;;;;;;;56.78;21.33;;;;;;;2.20;100.00;100412.53;5203075;28;20034;-79
2021/12/06 02:27:51;;;;;;;56.30;19.92;;;;;;;2.33;100.00;100416.78;5202610;28;20080;-78
2021/12/06 02:30:22;;;;;;;54.42;19.48;;;;;;;2.50;100.00;100414.97;5190778;28;20029;-78
2021/12/06 02:32:52;;;;;;;51.80;19.23;;;;;;;2.48;100.00;100414.97;5194361;28;20597;-79
2021/12/06 02:35:23;;;;;;;51.28;19.02;;;;;;;2.54;100.00;100419.22;5207496;28;20025;-80
2021/12/06 02:37:55;;;;;;;49.60;18.35;;;;;;;2.50;100.00;100422.69;5208165;28;20032;-79
2021/12/06 02:40:28;;;;;;;45.10;16.90;;;;;;;2.54;100.00;100429.53;5198487;28;20027;-80
2021/12/06 02:43:01;;;;;;;51.22;17.48;;;;;;;2.34;100.00;100431.38;5207241;28;20029;-80
2021/12/06 02:45:32;;;;;;;40.47;17.90;;;;;;;2.17;100.00;100431.44;5207074;28;20034;-79
2021/12/06 02:48:05;;;;;;;42.88;16.15;;;;;;;2.10;100.00;100426.31;5207094;28;20036;-78
2021/12/06 02:50:41;;;;;;;45.45;17.60;;;;;;;2.45;100.00;100429.59;5207630;28;20415;-79
2021/12/06 02:53:12;;;;;;;41.15;16.58;;;;;;;2.59;100.00;100433.81;5203815;28;20254;-80
2021/12/06 02:55:43;;;;;;;42.67;16.10;;;;;;;2.53;100.00;100440.72;5206955;28;20041;-78
2021/12/06 02:58:22;;;;;;;35.85;14.70;;;;;;;2.64;100.00;100446.66;5198091;28;20535;-79
2021/12/06 03:00:55;;;;;;;38.55;14.98;;;;;;;2.43;100.00;100441.63;5206494;28;20084;-79
2021/12/06 03:03:25;;;;;;;42.03;14.50;;;;;;;2.54;100.00;100448.44;5206827;28;20041;-77
2021/12/06 03:05:55;;;;;;;37.25;14.50;;;;;;;2.52;100.00;100451.91;5206963;28;20125;-77
2021/12/06 03:08:41;;;;;;;38.13;15.65;;;;;;;2.49;100.00;100451.94;5206994;28;20632;-78
2021/12/06 03:11:16;;;;;;;37.60;14.68;;;;;;;2.31;100.00;100459.75;5203795;28;20059;-79
2021/12/06 03:13:48;;;;;;;34.45;14.35;;;;;;;2.44;100.00;100458.81;5207067;28;20045;-80
2021/12/06 03:16:18;;;;;;;38.40;15.02;;;;;;;2.35;100.00;100459.72;5203887;28;20510;-77
2021/12/06 03:18:51;;;;;;;40.88;15.10;;;;;;;2.16;100.00;100472.72;5192269;28;20033;-79
2021/12/06 03:21:23;;;;;;;42.78;15.88;;;;;;;2.29;100.00;100458.88;5201235;28;20072;-79
2021/12/06 03:23:56;;;;;;;43.80;14.95;;;;;;;2.25;100.00;100464.91;5201577;28;20061;-77
2021/12/06 03:26:28;;;;;;;39.65;16.33;;;;;;;2.07;100.00;100462.41;5201344;28;20033;-78
2021/12/06 03:28:59;;;;;;;46.17;16.60;;;;;;;2.15;100.00;100465.84;5192243;28;20527;-79
2021/12/06 03:31:30;;;;;;;44.78;17.83;;;;;;;1.93;100.00;100464.16;5201473;28;20036;-78
2021/12/06 03:34:00;;;;;;;47.40;17.75;;;;;;;2.08;100.00;100459.84;5200318;28;20731;-80
2021/12/06 03:36:34;;;;;;;45.03;17.27;;;;;;;1.95;100.00;100452.13;5204340;28;20137;-78
2021/12/06 03:39:10;;;;;;;47.47;17.45;;;;;;;1.97;100.00;100460.75;5201417;28;20026;-78
2021/12/06 03:41:40;;;;;;;55.67;19.00;;;;;;;1.86;100.00;100472.78;5198415;28;20105;-78
2021/12/06 03:44:11;;;;;;;55.33;20.10;;;;;;;1.86;100.00;100475.38;5201265;28;20108;-78
2021/12/06 03:46:41;;;;;;;54.90;19.52;;;;;;;2.01;100.00;100477.91;5201664;28;20029;-78
2021/12/06 03:49:14;;;;;;;54.25;17.52;;;;;;;2.10;100.00;100480.44;5201821;28;20025;-78
2021/12/06 03:51:46;;;;;;;51.83;18.77;;;;;;;1.99;100.00;100472.75;5201493;28;20029;-78
2021/12/06 03:54:22;;;;;;;54.20;18.90;;;;;;;1.99;100.00;100479.63;5201592;28;20053;-78
2021/12/06 03:56:52;;;;;;;53.80;19.05;;;;;;;1.93;100.00;100483.09;5200624;28;20139;-79
2021/12/06 03:59:24;;;;;;;51.60;18.63;;;;;;;1.88;100.00;100482.25;5190061;28;20490;-78
2021/12/06 04:01:55;;;;;;;56.05;19.50;;;;;;;1.87;100.00;100484.81;5201170;28;20028;-79
2021/12/06 04:04:26;;;;;;;49.55;18.98;;;;;;;1.86;100.00;100488.25;5191438;28;20120;-78
2021/12/06 04:06:57;;;;;;;49.88;17.75;;;;;;;1.95;100.00;100496.81;5200809;28;20036;-78
2021/12/06 04:09:27;;;;;;;47.20;18.65;;;;;;;1.83;100.00;100496.00;5201145;28;20267;-79
2021/12/06 04:11:58;;;;;;;40.75;17.60;;;;;;;1.59;100.00;100508.03;5201205;28;20044;-77
2021/12/06 04:14:28;;;;;;;37.53;16.02;;;;;;;1.65;100.00;100506.31;5200745;28;20040;-78
2021/12/06 04:16:59;;;;;;;37.78;16.42;;;;;;;1.51;100.00;100497.75;5200530;28;20044;-79
2021/12/06 04:19:29;;;;;;;40.67;16.98;;;;;;;1.43;100.00;100512.31;5200895;28;20585;-79
2021/12/06 04:22:00;;;;;;;36.08;16.35;;;;;;;1.49;100.00;100511.47;5200962;28;20541;-79
2021/12/06 04:24:31;;;;;;;41.78;16.52;;;;;;;1.48;100.00;100513.19;5200889;28;20037;-78
2021/12/06 04:27:12;;;;;;;41.67;17.10;;;;;;;1.45;100.00;100520.06;5200567;28;20079;-79
2021/12/06 04:29:46;;;;;;;36.70;16.67;;;;;;;1.43;100.00;100517.47;5197578;28;20499;-79
2021/12/06 04:32:17;;;;;;;38.70;17.65;;;;;;;1.32;100.00;100516.63;5200670;28;20175;-79
2021/12/06 04:34:48;;;;;;;38.58;16.95;;;;;;;1.38;100.00;100521.75;5205721;28;20035;-78
2021/12/06 04:37:18;;;;;;;39.55;16.77;;;;;;;1.43;100.00;100520.03;5205700;28;20032;-79
2021/12/06 04:39:49;;;;;;;44.53;17.83;;;;;;;1.46;100.00;100512.34;5205281;28;20399;-78
2021/12/06 04:42:20;;;;;;;36.35;15.95;;;;;;;1.39;100.00;100520.91;5204947;28;20049;-79
2021/12/06 04:44:51;;;;;;;33.50;15.75;;;;;;;1.38;100.00;100529.50;5204472;28;20029;-78
2021/12/06 04:47:21;;;;;;;39.97;17.38;;;;;;;1.34;100.00;100537.19;5204473;28;20656;-78
2021/12/06 04:49:51;;;;;;;39.08;17.17;;;;;;;1.42;100.00;100538.91;5205067;28;20029;-78
2021/12/06 04:52:22;;;;;;;37.67;16.48;;;;;;;1.51;100.00;100545.78;5205100;28;20609;-79
2021/12/06 04:54:56;;;;;;;44.95;17.90;;;;;;;1.38;100.00;100544.94;5205084;28;20033;-78
2021/12/06 04:57:38;;;;;;;39.57;17.23;;;;;;;1.42;100.00;100544.06;5204591;28;20037;-78
2021/12/06 05:00:15;;;;;;;43.22;17.70;;;;;;;1.42;100.00;100546.66;5200542;28;20761;-78
2021/12/06 05:02:46;;;;;;;47.08;17.40;;;;;;;1.38;100.00;100555.22;5204311;28;20042;-78
2021/12/06 05:05:24;;;;;;;39.70;18.48;;;;;;;1.44;100.00;100555.22;5204530;28;20108;-78
2021/12/06 05:08:07;;;;;;;43.22;18.48;;;;;;;1.58;100.00;100558.66;5204541;28;20052;-78
2021/12/06 05:10:37;;;;;;;42.22;18.13;;;;;;;1.56;100.00;100562.97;5204572;28;20064;-79
2021/12/06 05:13:08;;;;;;;43.55;18.05;;;;;;;1.46;100.00;100558.69;5204506;28;20025;-78
2021/12/06 05:15:38;;;;;;;46.20;18.92;;;;;;;1.49;100.00;100562.97;5200477;28;20094;-79
2021/12/06 05:18:09;;;;;;;40.88;17.45;;;;;;;1.55;100.00;100568.13;5205617;28;20032;-78
2021/12/06 05:20:39;;;;;;;46.55;19.08;;;;;;;1.44;100.00;100570.66;5204866;28;20036;-78
2021/12/06 05:23:10;;;;;;;42.03;19.15;;;;;;;1.52;100.00;100579.28;5205705;28;20029;-77
2021/12/06 05:25:41;;;;;;;46.15;19.08;;;;;;;1.58;100.00;100574.13;5196022;28;20037;-79
2021/12/06 05:28:11;;;;;;;41.03;17.95;;;;;;;1.64;100.00;100569.00;5205792;28;20124;-79
2021/12/06 05:30:43;;;;;;;43.80;18.80;;;;;;;1.67;100.00;100584.44;5204521;28;20510;-78
2021/12/06 05:33:27;;;;;;;45.13;18.27;;;;;;;1.61;100.00;100584.41;5203804;28;20029;-78
2021/12/06 05:36:00;;;;;;;41.60;18.13;;;;;;;1.62;100.00;100577.56;5204068;28;21252;-79
2021/12/06 05:38:30;;;;;;;41.50;18.83;;;;;;;1.70;100.00;100581.84;5204095;28;20395;-78
2021/12/06 05:41:02;;;;;;;40.53;18.00;;;;;;;1.79;100.00;100593.00;5204015;28;20025;-79
2021/12/06 05:43:33;;;;;;;41.17;18.48;;;;;;;1.74;100.00;100595.59;5203998;28;20025;-78
2021/12/06 05:46:04;;;;;;;45.53;18.75;;;;;;;1.76;100.00;100604.19;5203650;28;20153;-78
2021/12/06 05:48:34;;;;;;;41.65;17.02;;;;;;;1.73;100.00;100599.88;5204413;28;20278;-79
2021/12/06 05:51:05;;;;;;;40.83;17.08;;;;;;;1.82;100.00;100605.03;5204473;28;20036;-79
2021/12/06 05:53:35;;;;;;;42.72;18.50;;;;;;;1.83;100.00;100606.75;5204106;28;20071;-82
2021/12/06 05:56:06;;;;;;;39.03;18.35;;;;;;;1.78;100.00;100608.44;5194516;28;20025;-78
2021/12/06 05:58:37;;;;;;;41.38;17.10;;;;;;;1.73;100.00;100612.75;5194735;28;20088;-78
2021/12/06 06:01:08;;;;;;;41.67;18.38;;;;;;;1.87;100.00;100618.78;5204371;28;20399;-79
2021/12/06 06:03:39;;;;;;;45.47;18.88;;;;;;;1.71;100.00;100627.34;5200833;28;20030;-78
2021/12/06 06:06:09;;;;;;;40.85;17.90;;;;;;;1.80;100.00;100632.53;5238404;22;20048;-81
2021/12/06 06:08:39;;;;;;;43.00;18.85;;;;;;;1.79;100.00;100635.97;5205999;28;20029;-80
2021/12/06 06:11:10;;;;;;;39.42;17.65;;;;;;;1.75;100.00;100628.22;5200540;28;20021;-80
2021/12/06 06:13:40;;;;;;;47.22;18.15;;;;;;;1.67;100.00;100630.78;5196282;28;20045;-80
2021/12/06 06:16:10;;;;;;;45.13;19.08;;;;;;;1.72;100.00;100636.78;5210988;28;20121;-80
2021/12/06 06:18:41;;;;;;;46.45;19.92;;;;;;;1.74;100.00;100637.66;5199788;28;20160;-80
2021/12/06 06:21:11;;;;;;;42.80;18.25;;;;;;;1.67;100.00;100641.09;5194912;28;20034;-80
2021/12/06 06:23:42;;;;;;;43.47;18.05;;;;;;;2.06;100.00;100646.25;5198051;28;20089;-80
2021/12/06 06:26:12;;;;;;;49.88;19.30;;;;;;;1.76;100.00;100651.38;5197505;28;20032;-80
2021/12/06 06:28:43;;;;;;;38.78;18.35;;;;;;;1.87;100.00;100652.25;5200179;28;20089;-81
2021/12/06 06:31:13;;;;;;;43.60;19.13;;;;;;;1.81;100.00;100649.69;5214328;28;20016;-81
2021/12/06 06:33:43;;;;;;;48.30;18.98;;;;;;;1.68;100.00;100652.22;5200388;28;20028;-81
2021/12/06 06:36:14;;;;;;;44.83;18.95;;;;;;;1.67;100.00;100656.53;5213190;28;20079;-81
2021/12/06 06:38:44;;;;;;;42.55;18.63;;;;;;;1.81;100.00;100658.25;5208578;28;20030;-81
2021/12/06 06:41:14;;;;;;;47.83;17.67;;;;;;;1.96;100.00;100662.59;5197382;28;20026;-81
2021/12/06 06:43:45;;;;;;;46.30;18.95;;;;;;;1.90;100.00;100675.44;5194854;28;20124;-81
2021/12/06 06:46:15;;;;;;;46.15;18.95;;;;;;;1.79;100.00;100680.59;5196708;28;20478;-80
2021/12/06 06:48:46;;;;;;;44.70;19.17;;;;;;;1.65;100.00;100683.13;5199131;28;20021;-81
2021/12/06 06:51:16;;;;;;;47.45;18.77;;;;;;;1.78;100.00;100686.59;5197951;28;20029;-81
2021/12/06 06:53:46;;;;;;;50.67;19.08;;;;;;;1.61;100.00;100684.84;5193659;28;20026;-81
2021/12/06 06:56:17;;;;;;;54.50;19.98;;;;;;;1.53;100.00;100683.97;5197620;28;20026;-81
2021/12/06 06:58:47;;;;;;;56.55;21.25;;;;;;;1.61;100.00;100677.13;5197368;28;20017;-81
2021/12/06 07:01:19;;;;;;;47.78;19.50;;;;;;;1.66;100.00;100680.59;5207213;28;20715;-81
2021/12/06 07:03:53;;;;;;;49.35;19.50;;;;;;;1.75;100.00;100679.72;5193015;28;20030;-80
2021/12/06 07:06:26;;;;;;;47.63;18.48;;;;;;;1.71;100.00;100678.03;5206374;28;20029;-80
2021/12/06 07:08:57;;;;;;;45.53;18.33;;;;;;;1.74;100.00;100671.13;5203066;28;20030;-81
2021/12/06 07:11:28;;;;;;;50.28;18.70;;;;;;;1.84;100.00;100681.44;5197994;28;20561;-81
2021/12/06 07:13:58;;;;;;;50.75;19.13;;;;;;;1.71;100.00;100678.84;5191678;28;20025;-81
2021/12/06 07:16:29;;;;;;;53.78;20.35;;;;;;;1.70;100.00;100692.59;5192597;28;20500;-81
2021/12/06 07:19:00;;;;;;;50.20;19.80;;;;;;;1.66;100.00;100701.19;5193609;28;20454;-81
2021/12/06 07:21:30;;;;;;;55.60;20.40;;;;;;;1.69;100.00;100703.75;5197490;28;20032;-81
2021/12/06 07:24:01;;;;;;;51.75;20.95;;;;;;;1.72;100.00;100700.34;5193769;28;20033;-80
2021/12/06 07:26:31;;;;;;;50.00;20.40;;;;;;;1.60;100.00;100706.28;5220125;28;20457;-80
2021/12/06 07:29:03;;;;;;;57.50;19.95;;;;;;;1.55;100.00;100708.00;5212473;28;20021;-81
2021/12/06 07:31:33;;;;;;;54.60;20.13;;;;;;;1.61;100.00;100699.44;5217668;28;20459;-80
2021/12/06 07:34:03;;;;;;;51.42;19.67;;;;;;;1.68;100.00;100698.59;5191203;28;20036;-81
2021/12/06 07:36:34;;;;;;;52.28;20.45;;;;;;;1.72;100.00;100700.34;5191331;28;20748;-80
2021/12/06 07:39:04;;;;;;;47.05;19.02;;;;;;;1.81;100.00;100707.22;5197805;28;20029;-80
2021/12/06 07:41:34;;;;;;;50.22;19.60;;;;;;;1.83;100.00;100704.66;5193590;28;20037;-80
2021/12/06 07:44:05;;;;;;;49.10;19.33;;;;;;;1.77;100.00;100708.94;5195781;28;20570;-80
2021/12/06 07:46:37;;;;;;;59.85;20.60;;;;;;;1.76;100.00;100704.63;5191977;28;20145;-81
2021/12/06 07:49:07;;;;;;;44.83;18.45;;;;;;;1.77;100.00;100709.78;5196805;28;20064;-81
2021/12/06 07:51:38;;;;;;;48.45;18.67;;;;;;;1.91;100.00;100705.50;5192939;28;20057;-81
2021/12/06 07:54:08;;;;;;;54.10;20.45;;;;;;;1.97;100.00;100702.94;5192940;28;20410;-81
2021/12/06 07:56:41;;;;;;;51.65;18.30;;;;;;;1.94;100.00;100710.66;5211476;28;20034;-81
2021/12/06 07:59:11;;;;;;;49.08;19.33;;;;;;;2.07;100.00;100710.69;5199443;28;20033;-81
2021/12/06 08:01:42;;;;;;;51.05;18.48;;;;;;;2.02;100.00;100708.97;5209698;28;20033;-81
2021/12/06 08:04:12;;;;;;;48.92;17.77;;;;;;;2.09;100.00;100713.25;5191331;28;20049;-81
2021/12/06 08:06:42;;;;;;;51.80;19.20;;;;;;;2.04;100.00;100720.13;5192502;28;20037;-81
2021/12/06 08:09:14;;;;;;;46.28;18.33;;;;;;;1.96;100.00;100714.97;5191481;28;20136;-81
2021/12/06 08:11:45;;;;;;;50.40;19.48;;;;;;;1.78;100.00;100716.63;5214886;28;20025;-80
2021/12/06 08:14:15;;;;;;;47.85;19.55;;;;;;;1.85;100.00;100715.81;5195024;28;20025;-80
2021/12/06 08:16:46;;;;;;;48.33;19.15;;;;;;;1.83;100.00;100727.84;5191922;28;20025;-80
2021/12/06 08:19:17;;;;;;;48.35;19.38;;;;;;;1.79;100.00;100728.69;5199852;28;20041;-81
2021/12/06 08:21:47;;;;;;;47.50;19.00;;;;;;;1.86;100.00;100730.41;5191948;28;20037;-81
2021/12/06 08:24:17;;;;;;;46.15;19.05;;;;;;;2.00;100.00;100728.72;5200273;28;20044;-81
2021/12/06 08:26:48;;;;;;;44.42;18.52;;;;;;;2.08;100.00;100724.41;5214942;28;20090;-81
2021/12/06 08:29:18;;;;;;;40.83;17.58;;;;;;;1.96;100.00;100719.28;5205490;28;20580;-81
2021/12/06 08:31:48;;;;;;;44.03;18.65;;;;;;;2.04;100.00;100722.69;5212510;28;20025;-81
2021/12/06 08:34:19;;;;;;;44.40;18.42;;;;;;;2.15;100.00;100731.31;5192612;28;20017;-81
2021/12/06 08:36:49;;;;;;;41.92;17.67;;;;;;;2.14;100.00;100727.00;5196689;28;20037;-80
2021/12/06 08:39:19;;;;;;;44.45;17.83;;;;;;;2.02;100.00;100727.00;5202036;28;20033;-80
2021/12/06 08:41:50;;;;;;;41.20;17.67;;;;;;;2.10;100.00;100717.53;5205373;28;20057;-80
2021/12/06 08:44:20;;;;;;;48.67;18.58;;;;;;;2.15;100.00;100718.41;5203400;28;20033;-81
2021/12/06 08:46:50;;;;;;;41.85;17.20;;;;;;;2.23;100.00;100720.13;5195979;28;20124;-81
2021/12/06 08:49:21;;;;;;;41.40;16.55;;;;;;;2.07;100.00;100726.16;5195658;28;20041;-81
2021/12/06 08:51:57;;;;;;;35.95;14.85;;;;;;;2.08;100.00;100722.72;5190758;28;20033;-82
2021/12/06 08:54:29;;;;;;;32.55;14.60;;;;;;;2.04;100.00;100727.84;5195481;28;20033;-81
2021/12/06 08:57:02;;;;;;;29.42;14.13;;;;;;;1.93;100.00;100739.84;5206115;28;20045;-81
2021/12/06 08:59:33;;;;;;;32.58;14.98;;;;;;;1.93;100.00;100747.59;5228272;28;20398;-80
2021/12/06 09:02:04;;;;;;;34.45;15.27;;;;;;;1.89;100.00;100745.88;5200399;28;20026;-82
2021/12/06 09:04:38;;;;;;;29.13;13.45;;;;;;;2.14;100.00;100747.63;5198592;28;20037;-79
2021/12/06 09:07:13;;;;;;;27.70;12.17;;;;;;;2.12;100.00;100744.16;5187184;28;20037;-80
2021/12/06 09:09:46;;;;;;;31.43;12.27;;;;;;;2.20;100.00;100737.31;5188815;28;20179;-79
2021/12/06 09:12:21;;;;;;;25.83;11.70;;;;;;;2.12;100.00;100739.00;5195334;28;20108;-79
2021/12/06 09:14:54;;;;;;;27.08;10.88;;;;;;;2.02;100.00;100742.47;5194374;28;20411;-80
2021/12/06 09:17:24;;;;;;;25.90;11.45;;;;;;;2.07;100.00;100756.19;5193159;28;20096;-81
2021/12/06 09:19:55;;;;;;;24.58;10.27;;;;;;;2.11;100.00;100750.19;5193807;28;20064;-81
2021/12/06 09:22:25;;;;;;;21.00;10.57;;;;;;;2.09;100.00;100755.34;5207041;28;20452;-81
2021/12/06 09:24:56;;;;;;;19.20;9.15;;;;;;;2.02;100.00;100747.63;5203135;28;20033;-81
2021/12/06 09:27:27;;;;;;;23.58;10.43;;;;;;;2.06;100.00;100757.94;5224822;28;20051;-79
2021/12/06 09:29:58;;;;;;;20.67;9.95;;;;;;;2.09;100.00;100749.31;5215842;28;20032;-80
2021/12/06 09:32:28;;;;;;;23.77;11.00;;;;;;;2.05;100.00;100748.47;5216503;28;20025;-80
2021/12/06 09:34:59;;;;;;;23.45;10.77;;;;;;;2.01;100.00;100746.75;5228903;28;20021;-82
2021/12/06 09:37:31;;;;;;;24.23;10.82;;;;;;;1.99;100.00;100740.72;5212846;28;20029;-78
2021/12/06 09:40:04;;;;;;;23.48;9.88;;;;;;;1.99;100.00;100734.72;5199525;28;20171;-81
2021/12/06 09:42:36;;;;;;;22.05;10.35;;;;;;;1.86;100.00;100730.41;5197953;28;20113;-80
2021/12/06 09:45:09;;;;;;;23.60;11.35;;;;;;;2.06;100.00;100726.13;5206258;28;20030;-82
2021/12/06 09:47:40;;;;;;;24.00;11.18;;;;;;;2.09;100.00;100724.44;5208017;28;20040;-79
2021/12/06 09:50:11;;;;;;;21.00;10.48;;;;;;;2.18;100.00;100721.84;5197711;28;20110;-81
2021/12/06 09:52:41;;;;;;;20.35;10.00;;;;;;;2.27;100.00;100719.28;5187009;28;20109;-79
2021/12/06 09:55:12;;;;;;;19.38;8.75;;;;;;;2.25;100.00;100722.69;5188922;28;20021;-79
2021/12/06 09:57:42;;;;;;;18.60;8.82;;;;;;;2.12;100.00;100723.53;5186287;28;20037;-79
2021/12/06 10:00:15;;;;;;;18.50;8.60;;;;;;;2.08;100.00;100717.56;5195582;28;20375;-80
2021/12/06 10:02:46;;;;;;;16.40;8.25;;;;;;;2.28;100.00;100714.97;5203771;28;20021;-82
2021/12/06 10:05:17;;;;;;;15.20;8.30;;;;;;;2.53;100.00;100704.63;5193360;28;20040;-80
2021/12/06 10:07:47;;;;;;;17.65;8.27;;;;;;;2.80;100.00;100698.56;5185786;28;20606;-82
2021/12/06 10:10:17;;;;;;;19.40;8.40;;;;;;;3.00;100.00;100699.38;5196455;28;20025;-82
2021/12/06 10:12:52;;;;;;;16.08;7.82;;;;;;;2.84;100.00;100703.72;5197663;28;20026;-82
2021/12/06 10:15:25;;;;;;;14.95;7.38;;;;;;;2.81;100.00;100702.84;5185741;28;20029;-81
2021/12/06 10:17:59;;;;;;;16.52;8.88;;;;;;;2.86;100.00;100690.81;5198642;28;20029;-81
2021/12/06 10:20:31;;;;;;;15.10;7.90;;;;;;;2.73;100.00;100699.44;5200472;28;20061;-81
2021/12/06 10:23:01;;;;;;;18.70;8.32;;;;;;;2.80;100.00;100688.22;5195461;28;20041;-79
2021/12/06 10:25:42;;;;;;;15.20;7.65;;;;;;;2.87;100.00;100695.09;5205766;28;20152;-82
2021/12/06 10:28:14;;;;;;;14.38;7.63;;;;;;;2.81;100.00;100687.38;5206795;28;20175;-80
2021/12/06 10:30:49;;;;;;;13.85;7.47;;;;;;;2.79;100.00;100691.69;5188369;28;20034;-80
2021/12/06 10:33:23;;;;;;;15.23;7.33;;;;;;;2.77;100.00;100686.53;5187032;28;20025;-79
2021/12/06 10:35:57;;;;;;;13.80;7.70;;;;;;;2.73;100.00;100683.97;5185321;28;20022;-80
2021/12/06 10:38:33;;;;;;;14.40;7.28;;;;;;;2.63;100.00;100692.56;5193799;28;20025;-80
2021/12/06 10:41:10;;;;;;;16.77;7.55;;;;;;;2.54;100.00;100690.88;5189856;28;20483;-79
2021/12/06 10:43:48;;;;;;;16.33;8.02;;;;;;;2.65;100.00;100689.13;5206110;28;20025;-79
2021/12/06 10:46:19;;;;;;;13.93;6.97;;;;;;;2.49;100.00;100699.50;5206602;28;20549;-81
2021/12/06 10:48:54;;;;;;;16.70;7.90;;;;;;;2.50;100.00;100703.78;5205223;28;20030;-79
2021/12/06 10:51:25;;;;;;;15.55;7.95;;;;;;;2.48;100.00;100702.94;5191614;28;20030;-79
2021/12/06 10:54:02;;;;;;;17.52;8.40;;;;;;;2.59;100.00;100706.34;5199523;28;20633;-82
2021/12/06 10:56:41;;;;;;;15.07;7.57;;;;;;;2.34;100.00;100709.81;5203594;28;20041;-80
2021/12/06 10:59:13;;;;;;;18.02;7.97;;;;;;;2.37;100.00;100708.06;5196806;28;20063;-81
2021/12/06 11:01:45;;;;;;;18.48;9.07;;;;;;;2.33;100.00;100708.09;5191027;28;20033;-82
2021/12/06 11:04:17;;;;;;;17.20;8.02;;;;;;;2.29;100.00;100714.09;5197318;28;20391;-81
2021/12/06 11:06:51;;;;;;;19.75;8.38;;;;;;;2.26;100.00;100712.41;5204490;28;20554;-79
2021/12/06 11:09:27;;;;;;;18.60;10.02;;;;;;;2.31;100.00;100705.50;5190668;28;20034;-80
2021/12/06 11:12:00;;;;;;;19.27;9.30;;;;;;;2.28;100.00;100696.91;5184497;28;20120;-80
2021/12/06 11:14:40;;;;;;;18.02;9.75;;;;;;;2.14;100.00;100699.50;5203418;28;20057;-81
2021/12/06 11:17:18;;;;;;;19.50;9.82;;;;;;;1.98;100.00;100707.25;5190181;28;20092;-81
2021/12/06 11:19:51;;;;;;;20.15;9.82;;;;;;;1.90;100.00;100704.66;5186780;28;20575;-79
2021/12/06 11:22:25;;;;;;;18.73;9.68;;;;;;;2.14;100.00;100693.50;5188485;28;20190;-82
2021/12/06 11:24:55;;;;;;;19.90;10.30;;;;;;;2.04;100.00;100689.19;5185839;28;20024;-79
2021/12/06 11:27:37;;;;;;;22.60;10.98;;;;;;;1.85;100.00;100697.78;5184613;28;20026;-80
2021/12/06 11:30:11;;;;;;;22.40;9.70;;;;;;;1.95;100.00;100694.34;5192686;28;20491;-80
2021/12/06 11:32:48;;;;;;;20.67;10.35;;;;;;;2.02;100.00;100694.34;5205583;28;20061;-79
2021/12/06 11:35:22;;;;;;;23.65;10.98;;;;;;;2.04;100.00;100690.06;5201974;28;20423;-81
2021/12/06 11:38:03;;;;;;;18.40;9.88;;;;;;;1.93;100.00;100681.47;5190790;28;20103;-79
2021/12/06 11:40:35;;;;;;;20.70;9.77;;;;;;;1.91;100.00;100682.31;5214751;28;20485;-79
2021/12/06 11:43:09;;;;;;;19.38;9.18;;;;;;;1.69;100.00;100678.00;5225122;28;20562;-80